createdAt,value
2022-08-28T00:01:59.668Z,90.57
2022-08-28T00:07:31.467Z,89.83
2022-08-28T00:13:03.369Z,90.96
2022-08-28T00:18:34.912Z,90.76
2022-08-28T00:24:06.733Z,90.72
2022-08-28T00:29:38.292Z,90.92
2022-08-28T00:35:10.330Z,89.92
2022-08-28T00:40:42.046Z,90.44
2022-08-28T00:46:13.731Z,91.10
2022-08-28T00:51:45.832Z,91.62
2022-08-28T00:57:17.489Z,92.36
2022-08-28T01:02:49.303Z,92.22
2022-08-28T01:08:21.156Z,92.33
2022-08-28T01:13:52.821Z,92.01
2022-08-28T01:19:24.671Z,91.80
2022-08-28T01:24:56.200Z,91.89
2022-08-28T01:30:27.850Z,92.74
2022-08-28T01:35:59.607Z,92.18
2022-08-28T01:41:31.252Z,91.60
2022-08-28T01:47:02.869Z,90.72
2022-08-28T01:52:34.274Z,91.74
2022-08-28T01:58:06.930Z,92.22
2022-08-28T02:03:39.075Z,92.29
2022-08-28T02:09:14.623Z,91.92
2022-08-28T02:14:42.613Z,92.74
2022-08-28T02:20:14.562Z,92.74
2022-08-28T02:25:46.498Z,92.61
2022-08-28T02:31:18.190Z,91.47
2022-08-28T02:42:19.460Z,92.64
2022-08-28T02:47:51.204Z,92.88
2022-08-28T02:53:22.943Z,92.40
2022-08-28T02:58:54.956Z,92.00
2022-08-28T03:04:26.529Z,92.57
2022-08-28T03:09:58.710Z,92.25
2022-08-28T03:15:30.795Z,92.33
2022-08-28T03:21:02.576Z,91.98
2022-08-28T03:26:34.430Z,91.96
2022-08-28T03:32:06.253Z,92.57
2022-08-28T03:37:38.545Z,91.88
2022-08-28T03:43:10.385Z,92.56
2022-08-28T03:48:44.682Z,92.25
2022-08-28T03:54:13.991Z,92.06
2022-08-28T03:59:45.854Z,92.27
2022-08-28T04:05:17.523Z,92.46
2022-08-28T04:10:49.259Z,92.15
2022-08-28T04:16:21.260Z,92.52
2022-08-28T04:21:54.326Z,92.55
2022-08-28T04:27:25.885Z,92.44
2022-08-28T04:32:57.342Z,92.30
2022-08-28T04:38:29.346Z,92.05
2022-08-28T04:44:01.101Z,92.29
2022-08-28T04:55:02.144Z,91.79
2022-08-28T05:00:34.146Z,92.33
2022-08-28T05:06:05.915Z,92.38
2022-08-28T05:11:38.044Z,91.47
2022-08-28T05:17:10.058Z,91.40
2022-08-28T05:22:41.768Z,91.32
2022-08-28T05:28:13.730Z,91.15
2022-08-28T05:33:45.115Z,90.31
2022-08-28T05:39:16.740Z,91.26
2022-08-28T05:44:48.569Z,91.46
2022-08-28T05:50:20.441Z,91.37
2022-08-28T05:55:52.104Z,91.41
2022-08-28T06:01:23.824Z,90.94
2022-08-28T06:09:16.376Z,90.29
2022-08-28T06:14:47.928Z,90.41
2022-08-28T06:20:19.626Z,89.79
2022-08-28T06:25:51.392Z,90.77
2022-08-28T06:31:26.498Z,90.10
2022-08-28T06:36:54.534Z,90.33
2022-08-28T06:42:25.892Z,90.99
2022-08-28T06:47:57.746Z,91.45
2022-08-28T06:53:29.571Z,90.45
2022-08-28T06:59:01.353Z,90.28
2022-08-28T07:04:33.127Z,90.34
2022-08-28T07:10:04.883Z,90.85
2022-08-28T07:15:36.831Z,91.99
2022-08-28T07:26:38.177Z,92.64
2022-08-28T07:32:09.993Z,93.33
2022-08-28T07:37:41.846Z,93.46
2022-08-28T07:43:13.464Z,94.22
2022-08-28T07:48:45.236Z,94.43
2022-08-28T07:54:18.016Z,93.71
2022-08-28T08:05:18.536Z,94.28
2022-08-28T08:10:50.279Z,94.50
2022-08-28T08:16:22.285Z,93.75
2022-08-28T08:21:55.325Z,94.13
2022-08-28T08:27:25.613Z,93.36
2022-08-28T08:32:57.383Z,93.64
2022-08-28T08:38:29.125Z,92.90
2022-08-28T08:44:00.856Z,92.85
2022-08-28T08:49:32.181Z,92.65
2022-08-28T08:55:03.824Z,91.38
2022-08-28T09:00:35.342Z,91.81
2022-08-28T09:06:07.270Z,91.94
2022-08-28T09:11:38.742Z,92.44
2022-08-28T09:17:10.420Z,91.48
2022-08-28T09:22:42.053Z,91.58
2022-08-28T09:28:13.937Z,91.60
2022-08-28T09:33:45.531Z,90.15
2022-08-28T09:39:17.491Z,90.67
2022-08-28T09:44:51.818Z,90.48
2022-08-28T09:50:20.988Z,90.89
2022-08-28T09:55:52.404Z,89.66
2022-08-28T10:01:23.816Z,89.68
2022-08-28T10:06:55.213Z,89.89
2022-08-28T10:12:26.625Z,89.60
2022-08-28T10:17:58.666Z,89.05
2022-08-28T10:23:30.886Z,89.45
2022-08-28T10:29:02.540Z,88.61
2022-08-28T10:34:35.008Z,88.32
2022-08-28T10:40:06.902Z,88.26
2022-08-28T10:45:38.471Z,88.63
2022-08-28T10:51:10.316Z,88.65
2022-08-28T10:56:42.273Z,88.24
2022-08-28T11:02:14.602Z,88.14
2022-08-28T11:07:46.143Z,87.40
2022-08-28T11:13:17.906Z,87.16
2022-08-28T11:18:49.750Z,86.23
2022-08-28T11:24:21.450Z,85.29
2022-08-28T11:29:53.340Z,82.52
2022-08-28T11:35:25.175Z,82.26
2022-08-28T11:40:56.779Z,82.48
2022-08-28T11:46:28.911Z,82.69
2022-08-28T11:52:00.624Z,82.37
2022-08-28T11:57:32.398Z,82.27
2022-08-28T12:03:04.186Z,80.66
2022-08-28T12:08:35.953Z,82.15
2022-08-28T12:14:07.869Z,81.34
2022-08-28T12:19:41.230Z,79.72
2022-08-28T12:25:11.372Z,79.10
2022-08-28T12:30:43.065Z,77.60
2022-08-28T12:36:14.607Z,77.93
2022-08-28T12:41:46.426Z,76.42
2022-08-28T12:47:18.006Z,76.29
2022-08-28T12:52:49.665Z,74.81
2022-08-28T12:58:22.017Z,74.54
2022-08-28T13:03:54.040Z,74.71
2022-08-28T13:09:26.201Z,74.44
2022-08-28T13:15:04.160Z,74.72
2022-08-28T13:20:35.713Z,73.70
2022-08-28T13:26:07.488Z,73.97
2022-08-28T13:33:58.886Z,73.59
2022-08-28T13:39:29.628Z,74.00
2022-08-28T13:45:01.066Z,73.70
2022-08-28T13:50:32.863Z,73.25
2022-08-28T13:56:04.669Z,73.34
2022-08-28T14:01:40.203Z,73.44
2022-08-28T14:07:10.408Z,73.06
2022-08-28T14:12:42.051Z,72.89
2022-08-28T14:18:13.975Z,72.19
2022-08-28T14:23:45.699Z,70.67
2022-08-28T14:29:17.805Z,70.66
2022-08-28T14:34:49.269Z,71.95
2022-08-28T14:40:21.148Z,70.64
2022-08-28T14:45:53.157Z,70.24
2022-08-28T14:51:24.935Z,70.49
2022-08-28T14:56:56.794Z,69.92
2022-08-28T15:02:28.838Z,70.45
2022-08-28T15:08:00.491Z,69.67
2022-08-28T15:13:32.670Z,68.95
2022-08-28T15:19:04.441Z,68.05
2022-08-28T15:24:36.571Z,67.97
2022-08-28T15:30:08.175Z,67.94
2022-08-28T15:35:39.912Z,68.29
2022-08-28T15:41:11.879Z,67.59
2022-08-28T15:46:43.468Z,68.21
2022-08-28T15:52:15.420Z,68.64
2022-08-28T15:57:46.964Z,68.33
2022-08-28T16:03:19.201Z,68.43
2022-08-28T16:14:21.162Z,68.58
2022-08-28T16:19:51.384Z,69.38
2022-08-28T16:25:24.595Z,68.96
2022-08-28T16:30:56.487Z,70.33
2022-08-28T16:36:28.435Z,69.52
2022-08-28T16:42:00.380Z,69.40
2022-08-28T16:47:31.959Z,69.91
2022-08-28T16:53:06.830Z,69.71
2022-08-28T16:58:35.290Z,70.24
2022-08-28T17:04:07.447Z,70.58
2022-08-28T17:09:39.542Z,70.95
2022-08-28T17:15:11.514Z,71.59
2022-08-28T17:20:43.246Z,72.30
2022-08-28T17:26:14.991Z,72.87
2022-08-28T17:31:46.876Z,73.12
2022-08-28T17:37:18.646Z,73.20
2022-08-28T17:42:50.538Z,73.73
2022-08-28T17:48:22.292Z,74.15
2022-08-28T17:53:53.855Z,74.68
2022-08-28T17:59:25.733Z,75.24
2022-08-28T18:04:58.022Z,75.59
2022-08-28T18:10:30.051Z,76.19
2022-08-28T18:16:01.887Z,76.40
2022-08-28T18:21:33.631Z,77.15
2022-08-28T18:27:05.446Z,77.77
2022-08-28T18:32:37.156Z,78.33
2022-08-28T18:38:08.809Z,78.98
2022-08-28T18:43:40.647Z,78.82
2022-08-28T18:49:12.702Z,79.28
2022-08-28T19:05:46.277Z,80.79
2022-08-28T19:11:18.091Z,80.93
2022-08-28T19:16:50.278Z,81.87
2022-08-28T19:22:22.147Z,82.27
2022-08-28T19:27:54.624Z,81.73
2022-08-28T19:33:25.656Z,82.35
2022-08-28T19:38:57.272Z,82.75
2022-08-28T19:44:29.353Z,82.85
2022-08-28T19:50:01.024Z,82.95
2022-08-28T19:55:32.843Z,83.01
2022-08-28T20:01:04.728Z,83.98
2022-08-28T20:06:36.637Z,83.99
2022-08-28T20:12:08.803Z,83.88
2022-08-28T20:17:43.759Z,84.44
2022-08-28T20:23:12.441Z,84.61
2022-08-28T20:28:44.378Z,84.91
2022-08-28T20:34:16.575Z,85.37
2022-08-28T20:39:48.783Z,84.85
2022-08-28T20:45:20.255Z,85.43
2022-08-28T20:50:52.301Z,85.53
2022-08-28T20:56:24.016Z,85.96
2022-08-28T21:01:55.822Z,86.47
2022-08-28T21:07:27.739Z,86.95
2022-08-28T21:12:59.728Z,87.14
2022-08-28T21:18:31.748Z,86.46
2022-08-28T21:24:03.597Z,86.77
2022-08-28T21:29:35.961Z,86.92
2022-08-28T21:35:08.513Z,87.32
2022-08-28T21:40:40.323Z,87.80
2022-08-28T21:46:12.250Z,87.13
2022-08-28T21:51:44.014Z,87.65
2022-08-28T21:57:15.766Z,87.62
2022-08-28T22:02:47.372Z,87.64
2022-08-28T22:08:19.137Z,88.97
2022-08-28T22:13:51.116Z,89.14
2022-08-28T22:19:22.828Z,89.41
2022-08-28T22:24:54.794Z,88.81
2022-08-28T22:30:26.440Z,88.86
2022-08-28T22:35:58.071Z,89.30
2022-08-28T22:41:29.796Z,89.13
2022-08-28T22:47:01.531Z,88.62
2022-08-28T22:52:33.370Z,89.13
2022-08-28T23:03:34.618Z,89.08
2022-08-28T23:09:06.492Z,88.85
2022-08-28T23:14:38.427Z,88.97
2022-08-28T23:20:10.210Z,89.07
2022-08-28T23:25:41.855Z,88.87
2022-08-28T23:31:19.771Z,89.28
2022-08-28T23:36:51.903Z,89.42
2022-08-28T23:42:23.733Z,89.33
2022-08-28T23:47:55.705Z,89.24
2022-08-28T23:53:27.294Z,89.26
2022-08-28T23:58:58.921Z,89.09
